Time;durP1;ratioP1;P1;durP2;ratioP2;P2;SDS_P1;SDS_P2;PMS_P1;PMS_P2;Temp;Humidity;BMP_temperature;BMP_pressure;BME280_temperature;BME280_humidity;BME280_pressure;Samples;Min_cycle;Max_cycle;Signal;HPM_P1;HPM_P2
2022/06/21 00:00:05;;;;;;;1.47;1.37;;;14.70;99.90;;;;;;5013779;28;20989;-76
2022/06/21 00:02:32;;;;;;;2.20;1.23;;;14.60;99.90;;;;;;5013628;28;20951;-76
2022/06/21 00:04:57;;;;;;;1.70;1.60;;;14.60;99.90;;;;;;5013715;28;20420;-76
2022/06/21 00:07:26;;;;;;;1.47;1.37;;;14.50;99.90;;;;;;5014189;28;20513;-76
2022/06/21 00:09:53;;;;;;;1.30;1.20;;;14.50;99.90;;;;;;5013707;28;20200;-76
2022/06/21 00:12:20;;;;;;;1.43;1.33;;;14.50;99.90;;;;;;5014320;28;20469;-76
2022/06/21 00:14:47;;;;;;;1.17;1.07;;;14.40;99.90;;;;;;5013956;28;20411;-76
2022/06/21 00:17:16;;;;;;;2.00;1.43;;;14.40;99.90;;;;;;5013794;28;20409;-76
2022/06/21 00:19:43;;;;;;;1.90;1.20;;;14.30;99.90;;;;;;5013561;28;20845;-76
2022/06/21 00:22:13;;;;;;;7.70;4.13;;;14.30;99.90;;;;;;5013460;28;20438;-76
2022/06/21 00:24:38;;;;;;;3.33;3.03;;;14.30;99.90;;;;;;5013485;28;20453;-76
2022/06/21 00:27:09;;;;;;;2.20;1.50;;;14.30;99.90;;;;;;5013356;28;20832;-75
2022/06/21 00:29:35;;;;;;;2.33;1.50;;;14.20;99.90;;;;;;5013534;28;20269;-75
2022/06/21 00:32:00;;;;;;;2.30;1.40;;;14.10;99.90;;;;;;5012687;28;20560;-76
2022/06/21 00:34:26;;;;;;;5.13;2.47;;;14.00;99.90;;;;;;5013265;28;20201;-76
2022/06/21 00:36:52;;;;;;;7.40;4.00;;;14.00;99.90;;;;;;5013030;28;20186;-75
2022/06/21 00:39:19;;;;;;;2.67;2.07;;;14.00;99.90;;;;;;5013260;28;20175;-76
2022/06/21 00:42:04;;;;;;;1.87;1.20;;;14.00;99.90;;;;;;5012828;28;20191;-76
2022/06/21 00:44:38;;;;;;;2.20;1.47;;;13.90;99.90;;;;;;5013689;28;20784;-76
2022/06/21 00:47:06;;;;;;;3.60;1.30;;;13.90;99.90;;;;;;5012949;28;20417;-75
2022/06/21 00:49:43;;;;;;;1.17;1.17;;;13.80;99.90;;;;;;5013115;28;20421;-76
2022/06/21 00:52:18;;;;;;;1.37;1.30;;;13.70;99.90;;;;;;5012621;28;21079;-75
2022/06/21 00:55:10;;;;;;;1.17;1.17;;;13.70;99.90;;;;;;5011581;28;20420;-75
2022/06/21 00:57:47;;;;;;;1.47;1.37;;;13.70;99.90;;;;;;5013878;28;20917;-76
2022/06/21 02:30:52;;;;;;;2.10;1.57;;;13.50;99.90;;;;;;6004643;23;20360;-75
2022/06/21 02:33:21;;;;;;;1.77;1.67;;;13.60;99.90;;;;;;4999110;28;20516;-74
2022/06/21 02:36:09;;;;;;;2.87;1.67;;;13.50;99.90;;;;;;5010638;28;20995;-76
2022/06/21 02:38:40;;;;;;;1.20;1.10;;;13.50;99.90;;;;;;5015402;28;20413;-76
2022/06/21 02:41:13;;;;;;;1.47;1.40;;;13.40;99.90;;;;;;5015534;28;20429;-76
2022/06/21 02:43:54;;;;;;;3.93;1.50;;;13.40;99.90;;;;;;5015748;28;20424;-77
2022/06/21 02:46:24;;;;;;;2.13;1.97;;;13.40;99.90;;;;;;5015494;28;20775;-76
2022/06/21 02:48:58;;;;;;;1.87;1.40;;;13.30;99.90;;;;;;5015768;28;20409;-74
2022/06/21 02:51:35;;;;;;;2.37;1.53;;;13.30;99.90;;;;;;5014957;28;20429;-75
2022/06/21 02:54:15;;;;;;;1.70;1.60;;;13.30;99.90;;;;;;5015418;28;20460;-75
2022/06/21 02:57:09;;;;;;;2.00;1.63;;;13.30;99.90;;;;;;5015167;28;20803;-75
2022/06/21 02:59:38;;;;;;;2.60;1.50;;;13.30;99.90;;;;;;5014950;28;20412;-74
2022/06/21 03:02:08;;;;;;;3.87;1.80;;;13.30;99.90;;;;;;5014675;28;20444;-74
2022/06/21 03:04:52;;;;;;;1.80;1.70;;;13.30;99.90;;;;;;5013580;28;20475;-74
2022/06/21 03:07:23;;;;;;;2.30;1.33;;;13.20;99.90;;;;;;5014887;28;20464;-74
2022/06/21 03:09:49;;;;;;;2.20;1.50;;;13.20;99.90;;;;;;5014868;28;20948;-75
2022/06/21 03:12:19;;;;;;;1.40;1.30;;;13.10;99.90;;;;;;5014367;28;20487;-74
2022/06/21 03:14:48;;;;;;;1.17;1.17;;;13.10;99.90;;;;;;5014770;28;20994;-74
2022/06/21 03:17:17;;;;;;;4.20;1.53;;;13.20;99.90;;;;;;5014927;28;20417;-74
2022/06/21 03:19:52;;;;;;;2.07;1.50;;;13.10;99.90;;;;;;5014625;28;20414;-74
2022/06/21 03:22:20;;;;;;;2.60;2.10;;;13.10;99.90;;;;;;5014457;28;20448;-74
2022/06/21 03:24:50;;;;;;;1.57;1.47;;;13.10;99.90;;;;;;5014494;28;20422;-74
2022/06/21 03:27:35;;;;;;;1.50;1.40;;;13.20;99.90;;;;;;5014353;28;20440;-74
2022/06/21 03:30:01;;;;;;;2.20;1.23;;;13.20;99.90;;;;;;5014409;28;20409;-74
2022/06/21 03:32:33;;;;;;;2.17;1.90;;;13.20;99.90;;;;;;5013813;28;20474;-74
2022/06/21 03:35:00;;;;;;;3.27;1.70;;;13.10;99.90;;;;;;5014407;28;20406;-74
2022/06/21 03:37:25;;;;;;;8.23;1.80;;;13.20;99.90;;;;;;5014115;28;20415;-74
2022/06/21 03:42:41;;;;;;;1.43;1.40;;;13.30;99.90;;;;;;5014136;28;20350;-74
2022/06/21 03:45:27;;;;;;;5.07;1.47;;;13.30;99.90;;;;;;5014152;28;20473;-74
2022/06/21 03:48:00;;;;;;;1.97;1.87;;;13.40;99.90;;;;;;5014899;28;20460;-76
2022/06/21 03:50:40;;;;;;;1.50;1.40;;;13.40;99.90;;;;;;5014634;28;20422;-74
2022/06/21 03:53:18;;;;;;;1.70;1.60;;;13.50;99.90;;;;;;5014495;28;20857;-75
2022/06/21 03:56:08;;;;;;;1.87;1.77;;;13.60;99.90;;;;;;5014146;28;20890;-75
2022/06/21 03:58:46;;;;;;;2.13;1.90;;;13.70;99.90;;;;;;5014093;28;20457;-75
2022/06/21 04:01:24;;;;;;;3.00;1.90;;;13.80;99.90;;;;;;5013824;28;20837;-75
2022/06/21 04:04:12;;;;;;;2.40;1.80;;;13.90;99.90;;;;;;5015241;28;20414;-76
2022/06/21 04:07:01;;;;;;;3.20;2.10;;;14.00;99.90;;;;;;5014655;28;20433;-76
2022/06/21 04:09:43;;;;;;;3.90;1.37;;;14.10;99.90;;;;;;5013634;28;20830;-74
2022/06/21 04:12:30;;;;;;;2.47;1.90;;;14.30;99.90;;;;;;5013476;28;20552;-74
2022/06/21 04:15:25;;;;;;;2.23;1.57;;;14.40;99.90;;;;;;5013493;28;20406;-74
2022/06/21 04:17:55;;;;;;;2.57;2.10;;;14.60;99.90;;;;;;5013704;28;20401;-74
2022/06/21 04:20:24;;;;;;;3.73;2.60;;;14.70;99.90;;;;;;5013308;28;20406;-75
2022/06/21 04:23:01;;;;;;;3.17;1.87;;;14.80;99.90;;;;;;5013467;28;20441;-75
2022/06/21 04:25:44;;;;;;;2.30;1.60;;;15.00;99.90;;;;;;5013488;28;20453;-73
2022/06/21 04:28:24;;;;;;;3.93;2.10;;;15.20;99.90;;;;;;5013562;28;20413;-75
2022/06/21 04:31:00;;;;;;;2.43;2.20;;;15.30;99.90;;;;;;5012866;28;20423;-75
2022/06/21 04:33:29;;;;;;;1.57;1.47;;;15.40;99.90;;;;;;5013601;28;20890;-75
2022/06/21 04:36:03;;;;;;;2.20;2.00;;;15.50;99.90;;;;;;5013235;28;20420;-75
2022/06/21 04:38:37;;;;;;;3.37;1.60;;;15.70;99.90;;;;;;5013405;28;20394;-75
2022/06/21 04:41:11;;;;;;;9.63;1.93;;;15.80;99.90;;;;;;5013125;28;21045;-75
2022/06/21 04:43:53;;;;;;;3.23;1.73;;;16.00;99.90;;;;;;5013389;28;20972;-75
2022/06/21 04:46:40;;;;;;;3.60;1.50;;;16.20;99.90;;;;;;5013004;28;20437;-74
2022/06/21 04:49:21;;;;;;;3.20;1.63;;;16.30;99.90;;;;;;5013257;28;20405;-75
2022/06/21 04:51:55;;;;;;;2.93;2.00;;;16.40;99.90;;;;;;5012678;28;20968;-75
2022/06/21 04:54:25;;;;;;;7.20;2.30;;;16.50;99.90;;;;;;5013011;28;20902;-76
2022/06/21 04:57:32;;;;;;;4.30;1.00;;;16.60;99.90;;;;;;5012867;28;20413;-75
2022/06/21 05:00:03;;;;;;;4.60;1.80;;;16.60;99.90;;;;;;5010760;28;20436;-75
2022/06/21 05:02:33;;;;;;;2.60;1.40;;;16.80;99.90;;;;;;5010909;28;20876;-75
2022/06/21 05:05:03;;;;;;;5.37;1.80;;;16.90;99.90;;;;;;5012848;28;20930;-75
2022/06/21 05:07:34;;;;;;;3.10;1.53;;;17.10;99.90;;;;;;5012969;28;20460;-75
2022/06/21 05:10:00;;;;;;;2.47;1.80;;;17.80;99.90;;;;;;5012744;28;20981;-75
2022/06/21 05:12:36;;;;;;;1.93;1.53;;;18.60;99.90;;;;;;5012257;28;20535;-76
2022/06/21 05:15:07;;;;;;;3.77;1.70;;;19.40;99.90;;;;;;5012928;28;20517;-76
2022/06/21 05:17:35;;;;;;;2.47;1.30;;;20.00;99.90;;;;;;5012561;28;20933;-75
2022/06/21 05:20:05;;;;;;;2.40;1.93;;;20.90;99.90;;;;;;5012521;28;20409;-76
2022/06/21 05:22:36;;;;;;;8.67;1.67;;;21.20;99.90;;;;;;5012060;28;20435;-76
2022/06/21 05:25:06;;;;;;;2.93;1.60;;;21.40;99.90;;;;;;5012481;28;20963;-75
2022/06/21 05:27:45;;;;;;;2.60;1.53;;;21.40;99.90;;;;;;5012318;28;20412;-75
2022/06/21 05:30:37;;;;;;;3.10;1.43;;;21.30;99.90;;;;;;5012389;28;20417;-75
2022/06/21 05:33:14;;;;;;;1.97;1.40;;;21.20;99.90;;;;;;5012231;28;20477;-75
2022/06/21 05:35:41;;;;;;;2.77;1.80;;;21.70;99.90;;;;;;5012288;28;20413;-76
2022/06/21 05:38:13;;;;;;;4.10;1.90;;;21.70;99.90;;;;;;5012246;28;20471;-75
2022/06/21 05:40:56;;;;;;;2.23;1.37;;;22.00;99.90;;;;;;5011549;28;20421;-74
2022/06/21 05:43:46;;;;;;;5.60;1.50;;;21.80;99.90;;;;;;5011327;28;20445;-75
2022/06/21 05:46:20;;;;;;;3.30;2.07;;;21.90;99.90;;;;;;5012255;28;20410;-75
2022/06/21 05:48:46;;;;;;;1.73;1.60;;;22.00;99.90;;;;;;5012256;28;20461;-74
2022/06/21 05:51:16;;;;;;;7.10;2.87;;;21.80;99.90;;;;;;5011850;28;20468;-75
2022/06/21 05:53:50;;;;;;;2.33;2.13;;;21.60;99.90;;;;;;5011922;28;20195;-75
2022/06/21 05:56:21;;;;;;;6.20;1.87;;;21.30;99.90;;;;;;5012282;28;20421;-76
2022/06/21 05:58:52;;;;;;;5.60;2.33;;;20.80;99.90;;;;;;5012357;28;20413;-75
2022/06/21 06:01:34;;;;;;;3.17;2.10;;;20.40;99.90;;;;;;5011564;28;20448;-75
2022/06/21 06:04:13;;;;;;;5.83;2.13;;;20.00;99.90;;;;;;5012153;28;20406;-76
2022/06/21 06:06:41;;;;;;;4.90;1.70;;;19.90;99.90;;;;;;5011815;28;20416;-75
2022/06/21 06:09:45;;;;;;;2.30;1.80;;;19.60;99.90;;;;;;5011873;28;20421;-75
2022/06/21 06:12:24;;;;;;;2.23;1.90;;;19.40;99.90;;;;;;5012987;28;20468;-75
2022/06/21 06:14:54;;;;;;;5.20;1.90;;;19.30;99.90;;;;;;5016001;28;20509;-75
2022/06/21 06:17:49;;;;;;;3.97;1.80;;;19.40;99.90;;;;;;5015899;28;20418;-75
2022/06/21 06:20:39;;;;;;;1.83;1.60;;;19.40;99.90;;;;;;5015895;28;20783;-75
2022/06/21 06:23:30;;;;;;;3.53;1.70;;;19.60;99.90;;;;;;5017640;28;20914;-75
2022/06/21 06:26:12;;;;;;;6.00;1.87;;;19.80;99.90;;;;;;5016317;28;20419;-75
2022/06/21 06:28:44;;;;;;;2.00;1.80;;;20.20;99.90;;;;;;5015841;28;20421;-75
2022/06/21 06:31:20;;;;;;;3.03;1.60;;;20.60;99.90;;;;;;5015261;28;20445;-75
2022/06/21 06:33:52;;;;;;;2.40;1.33;;;21.30;99.90;;;;;;5015736;28;20475;-75
2022/06/21 06:36:21;;;;;;;1.77;1.67;;;21.70;99.90;;;;;;5015359;28;20413;-75
2022/06/21 06:38:47;;;;;;;4.03;2.20;;;21.90;99.90;;;;;;5014267;28;20536;-75
2022/06/21 06:42:04;;;;;;;1.73;1.20;;;22.20;99.90;;;;;;5015027;28;20441;-75
2022/06/21 06:44:38;;;;;;;1.77;1.67;;;22.40;99.90;;;;;;4974702;28;20433;-75
2022/06/21 06:47:11;;;;;;;9.00;2.07;;;22.70;99.90;;;;;;4974366;28;20407;-75
2022/06/21 06:49:42;;;;;;;1.20;1.00;;;23.10;99.90;;;;;;4996826;28;20953;-75
2022/06/21 06:52:20;;;;;;;2.53;1.93;;;23.00;99.90;;;;;;5014906;28;20488;-75
2022/06/21 06:55:14;;;;;;;4.43;1.90;;;23.40;99.90;;;;;;5015229;28;20825;-75
2022/06/21 06:57:48;;;;;;;4.10;1.47;;;23.10;99.90;;;;;;5015122;28;20410;-75
2022/06/21 07:00:14;;;;;;;2.93;1.50;;;23.30;99.90;;;;;;5015105;28;20482;-75
2022/06/21 07:02:45;;;;;;;1.77;1.50;;;23.10;99.90;;;;;;5014868;28;20504;-75
2022/06/21 07:05:17;;;;;;;1.77;1.67;;;23.30;99.90;;;;;;5015104;28;20273;-75
2022/06/21 07:07:53;;;;;;;5.40;1.73;;;23.70;99.90;;;;;;5015359;28;20913;-75
2022/06/21 07:10:22;;;;;;;6.63;1.93;;;23.90;99.90;;;;;;5014710;28;20408;-75
2022/06/21 07:12:50;;;;;;;7.47;1.90;;;23.90;99.90;;;;;;5014550;28;20457;-75
2022/06/21 07:15:18;;;;;;;5.60;2.40;;;24.00;99.90;;;;;;5014668;28;20416;-76
2022/06/21 07:17:51;;;;;;;2.17;1.93;;;24.20;99.90;;;;;;5014797;28;20421;-75
2022/06/21 07:20:23;;;;;;;5.23;2.20;;;24.10;99.90;;;;;;5014612;28;20818;-75
2022/06/21 07:22:52;;;;;;;5.30;2.07;;;24.20;99.90;;;;;;5014456;28;20433;-75
2022/06/21 07:25:37;;;;;;;3.57;2.00;;;24.10;99.90;;;;;;5014646;28;20504;-75
2022/06/21 07:28:32;;;;;;;4.80;1.53;;;23.70;99.90;;;;;;5014784;28;20425;-76
2022/06/21 07:31:05;;;;;;;13.20;2.13;;;23.60;99.90;;;;;;4999322;28;20899;-75
2022/06/21 07:33:38;;;;;;;2.63;1.83;;;23.10;99.90;;;;;;5014239;28;20485;-75
2022/06/21 07:36:08;;;;;;;4.00;1.50;;;22.80;99.90;;;;;;5014340;28;20924;-75
2022/06/21 07:38:39;;;;;;;3.03;1.60;;;22.60;99.90;;;;;;5014087;28;20447;-75
2022/06/21 07:41:14;;;;;;;5.80;2.37;;;22.40;99.90;;;;;;5014124;28;20426;-76
2022/06/21 07:43:44;;;;;;;2.03;1.50;;;22.40;99.90;;;;;;5014193;28;20425;-75
2022/06/21 07:46:15;;;;;;;3.17;1.73;;;22.00;99.90;;;;;;5014307;28;20449;-76
2022/06/21 07:48:51;;;;;;;8.17;2.50;;;22.00;99.90;;;;;;5014135;28;20429;-75
2022/06/21 07:51:21;;;;;;;2.50;2.30;;;21.90;99.90;;;;;;5013664;28;20457;-75
2022/06/21 07:53:54;;;;;;;2.37;1.77;;;21.90;99.90;;;;;;5014181;28;20465;-74
2022/06/21 07:56:33;;;;;;;4.90;1.90;;;21.90;99.90;;;;;;5012703;28;20422;-75
2022/06/21 07:59:00;;;;;;;3.27;1.73;;;21.80;99.90;;;;;;5014045;28;20416;-75
2022/06/21 08:07:40;;;;;;;5.47;1.70;;;22.80;99.90;;;;;;5013906;28;20416;-76
2022/06/21 08:10:23;;;;;;;5.60;1.83;;;22.80;99.90;;;;;;5013548;28;20461;-75
2022/06/21 08:12:49;;;;;;;4.27;1.80;;;22.70;99.90;;;;;;5013520;28;20465;-75
2022/06/21 08:15:15;;;;;;;4.50;1.90;;;22.80;99.90;;;;;;5013470;28;20416;-75
2022/06/21 08:17:51;;;;;;;3.53;1.63;;;22.80;99.90;;;;;;5013461;28;20406;-75
2022/06/21 08:20:28;;;;;;;2.90;1.37;;;22.90;99.90;;;;;;5013259;28;20521;-76
2022/06/21 08:23:02;;;;;;;3.43;1.40;;;23.40;99.90;;;;;;5013532;28;20440;-76
2022/06/21 08:25:57;;;;;;;6.03;1.77;;;23.30;99.90;;;;;;5013196;28;20421;-75
2022/06/21 08:28:50;;;;;;;9.37;1.60;;;23.10;99.90;;;;;;5013497;28;20585;-75
2022/06/21 08:31:33;;;;;;;2.30;2.10;;;22.70;99.90;;;;;;5012870;28;20453;-75
2022/06/21 08:34:13;;;;;;;7.13;2.03;;;22.40;99.90;;;;;;5013037;28;21058;-75
2022/06/21 08:36:48;;;;;;;4.13;1.37;;;22.00;99.90;;;;;;5012950;28;20445;-76
2022/06/21 08:39:24;;;;;;;2.17;1.60;;;22.00;99.90;;;;;;5011817;28;20413;-75
2022/06/21 08:42:08;;;;;;;1.57;1.40;;;21.80;99.90;;;;;;5012871;28;20967;-75
2022/06/21 08:48:18;;;;;;;1.80;1.70;;;21.90;99.90;;;;;;5013411;28;20444;-75
2022/06/21 08:50:58;;;;;;;1.73;1.57;;;22.10;99.90;;;;;;5012716;28;20449;-75
2022/06/21 08:53:45;;;;;;;4.37;2.30;;;22.00;99.90;;;;;;5012843;28;20461;-75
2022/06/21 08:56:22;;;;;;;1.53;1.43;;;22.00;99.90;;;;;;5012917;28;20437;-75
2022/06/21 08:59:13;;;;;;;3.20;1.80;;;21.90;99.90;;;;;;5011655;28;20429;-75
2022/06/21 09:02:01;;;;;;;1.90;1.50;;;21.80;99.90;;;;;;5012434;28;20512;-76
2022/06/21 09:04:48;;;;;;;2.33;2.13;;;21.80;99.90;;;;;;5013289;28;20409;-75
2022/06/21 09:07:46;;;;;;;3.47;1.80;;;21.80;99.90;;;;;;5013137;28;20409;-75
2022/06/21 09:10:20;;;;;;;1.60;1.40;;;22.00;99.90;;;;;;5012773;28;20484;-76
2022/06/21 09:13:19;;;;;;;5.90;2.30;;;22.50;99.90;;;;;;5012432;28;20745;-76
2022/06/21 09:16:05;;;;;;;2.80;2.20;;;23.80;99.90;;;;;;5011166;28;20418;-76
2022/06/21 09:18:47;;;;;;;1.93;1.63;;;24.90;99.90;;;;;;5012540;28;20559;-75
2022/06/21 09:21:44;;;;;;;2.50;1.90;;;25.30;99.90;;;;;;5012227;28;20429;-75
2022/06/21 09:24:41;;;;;;;6.13;2.20;;;25.30;99.90;;;;;;5012517;28;20414;-76
2022/06/21 09:27:22;;;;;;;4.53;2.07;;;25.30;99.90;;;;;;5008825;28;20521;-76
2022/06/21 09:30:09;;;;;;;5.77;1.90;;;25.60;99.90;;;;;;5012660;28;20420;-75
2022/06/21 09:32:54;;;;;;;2.03;1.53;;;25.30;99.90;;;;;;5012220;28;20477;-76
2022/06/21 09:35:44;;;;;;;2.70;1.80;;;25.20;99.90;;;;;;5012548;28;20614;-75
2022/06/21 09:38:30;;;;;;;5.33;2.07;;;25.40;99.90;;;;;;5012310;28;20397;-75
2022/06/21 09:41:12;;;;;;;4.93;2.47;;;25.70;99.90;;;;;;5012287;28;20425;-76
2022/06/21 09:43:48;;;;;;;2.17;1.83;;;26.10;99.90;;;;;;5012869;28;20426;-75
2022/06/21 09:46:13;;;;;;;6.00;1.93;;;26.60;99.90;;;;;;5011836;28;20816;-74
2022/06/21 09:49:03;;;;;;;3.60;1.47;;;26.80;99.90;;;;;;5012090;28;20499;-76
2022/06/21 09:51:48;;;;;;;2.10;1.87;;;27.20;99.90;;;;;;5011892;28;20203;-75
2022/06/21 09:54:26;;;;;;;3.33;2.10;;;27.60;99.90;;;;;;5012117;28;20489;-76
2022/06/21 09:56:51;;;;;;;2.90;1.77;;;28.10;99.90;;;;;;5012584;28;20416;-76
2022/06/21 09:59:29;;;;;;;6.57;1.93;;;28.10;99.90;;;;;;5011879;28;20406;-76
2022/06/21 10:02:13;;;;;;;6.70;2.30;;;28.20;99.90;;;;;;5011772;28;20205;-75
2022/06/21 10:05:03;;;;;;;4.00;2.00;;;27.80;99.90;;;;;;5012082;28;20752;-75
2022/06/21 10:08:00;;;;;;;6.03;1.67;;;27.40;99.90;;;;;;5011984;28;20402;-75
2022/06/21 10:10:49;;;;;;;2.43;2.00;;;26.80;99.90;;;;;;5003325;28;20432;-74
2022/06/21 10:13:58;;;;;;;2.80;1.90;;;26.60;99.90;;;;;;5011803;28;20461;-75
2022/06/21 10:16:46;;;;;;;3.20;1.90;;;26.60;99.90;;;;;;5010654;28;20413;-76
2022/06/21 10:19:41;;;;;;;3.57;2.03;;;26.90;99.90;;;;;;5011965;28;20444;-76
2022/06/21 10:22:24;;;;;;;6.37;2.20;;;26.90;99.90;;;;;;5011595;28;20417;-76
2022/06/21 10:25:26;;;;;;;2.50;2.30;;;27.10;99.90;;;;;;5011878;28;20485;-76
2022/06/21 10:28:45;;;;;;;3.53;2.20;;;27.10;99.90;;;;;;5011894;28;20925;-76
2022/06/21 10:31:25;;;;;;;2.50;2.30;;;27.10;99.90;;;;;;4970403;28;21030;-76
2022/06/21 10:33:54;;;;;;;6.40;2.20;;;27.40;99.90;;;;;;4971237;28;20470;-76
2022/06/21 10:36:28;;;;;;;3.10;1.90;;;27.30;99.90;;;;;;4994216;28;20417;-75
2022/06/21 10:39:29;;;;;;;6.57;1.90;;;27.10;99.90;;;;;;5011835;28;20417;-76
2022/06/21 10:45:38;;;;;;;4.67;2.73;;;27.50;99.90;;;;;;5011665;28;20468;-76
2022/06/21 10:48:34;;;;;;;4.67;2.47;;;27.20;99.90;;;;;;5011622;28;20413;-75
2022/06/21 10:51:07;;;;;;;4.70;2.13;;;27.40;99.90;;;;;;5011289;28;20433;-75
2022/06/21 10:54:12;;;;;;;6.23;2.27;;;27.50;99.90;;;;;;5011508;28;20473;-76
2022/06/21 10:57:09;;;;;;;5.43;2.90;;;27.30;99.90;;;;;;5011491;28;20552;-76
2022/06/21 11:03:01;;;;;;;4.07;2.47;;;27.60;99.90;;;;;;5014909;28;21085;-76
2022/06/21 11:05:42;;;;;;;2.87;2.40;;;28.10;99.90;;;;;;5015002;28;20906;-75
2022/06/21 11:08:29;;;;;;;3.43;2.50;;;27.80;99.90;;;;;;5015042;28;20412;-75
2022/06/21 11:11:22;;;;;;;3.57;2.70;;;27.60;99.90;;;;;;5013345;28;20799;-75
2022/06/21 11:14:10;;;;;;;3.17;2.40;;;27.50;99.90;;;;;;5014947;28;20464;-76
2022/06/21 11:16:51;;;;;;;3.00;2.83;;;27.80;99.90;;;;;;5014867;28;20460;-75
2022/06/21 11:19:36;;;;;;;2.60;2.40;;;27.80;99.90;;;;;;5014048;28;20483;-76
2022/06/21 11:22:36;;;;;;;4.83;2.60;;;28.40;99.90;;;;;;5014607;28;20461;-76
2022/06/21 11:25:28;;;;;;;8.90;3.73;;;28.70;99.90;;;;;;5013904;28;20806;-76
2022/06/21 11:28:16;;;;;;;2.97;2.23;;;28.40;99.90;;;;;;5015081;28;20410;-76
2022/06/21 11:31:08;;;;;;;2.80;2.57;;;28.00;99.90;;;;;;5013250;28;20923;-75
2022/06/21 11:33:50;;;;;;;3.67;3.27;;;27.40;99.90;;;;;;5014515;28;20809;-75
2022/06/21 11:36:43;;;;;;;8.50;3.33;;;27.30;99.90;;;;;;5014563;28;20401;-75
2022/06/21 11:39:50;;;;;;;5.83;3.60;;;27.00;99.90;;;;;;5014568;28;20402;-76
2022/06/21 11:42:33;;;;;;;4.30;2.70;;;26.60;99.90;;;;;;5008376;28;20449;-75
2022/06/21 11:45:26;;;;;;;3.27;3.03;;;26.70;99.90;;;;;;5014366;28;20417;-75
2022/06/21 11:48:02;;;;;;;6.43;4.10;;;26.80;99.90;;;;;;5014369;28;20940;-76
2022/06/21 11:50:43;;;;;;;5.37;3.77;;;26.90;99.90;;;;;;5014164;28;20508;-75
2022/06/21 11:53:36;;;;;;;3.30;3.00;;;27.40;99.90;;;;;;5014497;28;20461;-76
2022/06/21 11:56:28;;;;;;;7.30;2.93;;;27.60;99.90;;;;;;5014267;28;20414;-76
2022/06/21 11:59:31;;;;;;;3.70;3.50;;;27.90;99.90;;;;;;5014085;28;20410;-76
2022/06/21 12:02:21;;;;;;;9.10;3.57;;;28.00;99.90;;;;;;5013816;28;20811;-75
2022/06/21 12:04:55;;;;;;;4.00;3.30;;;27.70;99.90;;;;;;5014066;28;20424;-76
2022/06/21 12:07:36;;;;;;;5.03;3.00;;;27.50;99.90;;;;;;5013729;28;20425;-76
2022/06/21 12:10:17;;;;;;;4.30;3.90;;;27.40;99.90;;;;;;5013214;28;20432;-75
2022/06/21 12:13:01;;;;;;;6.13;3.77;;;27.20;99.90;;;;;;5013570;28;20465;-76
2022/06/21 12:15:47;;;;;;;4.23;3.10;;;27.30;99.90;;;;;;5013631;28;20413;-76
2022/06/21 12:18:17;;;;;;;4.37;3.73;;;27.40;99.90;;;;;;5013804;28;20409;-75
2022/06/21 12:21:00;;;;;;;3.57;3.27;;;27.30;99.90;;;;;;5013484;28;20911;-75
2022/06/21 12:23:41;;;;;;;6.53;3.57;;;27.30;99.90;;;;;;5013544;28;20398;-76
2022/06/21 12:26:21;;;;;;;4.87;3.17;;;27.50;99.90;;;;;;5013525;28;20445;-75
2022/06/21 12:28:48;;;;;;;3.87;3.40;;;27.40;99.90;;;;;;5013526;28;20847;-76
2022/06/21 12:31:21;;;;;;;3.37;3.17;;;27.50;99.90;;;;;;5013018;28;20461;-76
2022/06/21 12:33:51;;;;;;;6.27;3.53;;;27.60;99.90;;;;;;5013467;28;20839;-76
2022/06/21 12:36:30;;;;;;;3.63;3.33;;;27.60;99.90;;;;;;5013417;28;20440;-76
2022/06/21 12:39:05;;;;;;;4.00;3.63;;;27.60;99.90;;;;;;5013272;28;20429;-76
2022/06/21 12:42:19;;;;;;;9.93;3.37;;;27.60;99.90;;;;;;5012722;28;20425;-75
2022/06/21 12:44:56;;;;;;;6.80;3.80;;;27.70;99.90;;;;;;4976525;28;20819;-76
2022/06/21 12:47:37;;;;;;;8.03;3.83;;;27.80;99.90;;;;;;5013209;28;20768;-76
2022/06/21 12:50:33;;;;;;;10.17;3.63;;;27.60;99.90;;;;;;5013081;28;20413;-75
2022/06/21 12:53:17;;;;;;;7.30;4.03;;;27.40;99.90;;;;;;5013082;28;20471;-76
2022/06/21 12:56:01;;;;;;;11.00;4.30;;;27.40;99.90;;;;;;5012913;28;20441;-76
2022/06/21 12:58:45;;;;;;;7.90;3.93;;;27.30;99.90;;;;;;5012913;28;20413;-76
2022/06/21 13:01:20;;;;;;;8.13;3.27;;;27.40;99.90;;;;;;5012396;28;20999;-75
2022/06/21 13:03:59;;;;;;;4.00;3.50;;;27.50;99.90;;;;;;5012882;28;20844;-76
2022/06/21 13:06:36;;;;;;;4.70;3.10;;;27.60;99.90;;;;;;5012922;28;20761;-76
2022/06/21 13:09:24;;;;;;;6.93;3.80;;;27.80;99.90;;;;;;5011969;28;20421;-75
2022/06/21 13:12:08;;;;;;;4.70;4.20;;;27.80;99.90;;;;;;5012550;28;20448;-76
2022/06/21 13:15:01;;;;;;;4.50;4.10;;;27.80;99.90;;;;;;5012559;28;20425;-75
2022/06/21 13:17:54;;;;;;;10.00;4.30;;;27.60;99.90;;;;;;5012576;28;20420;-76
2022/06/21 13:20:45;;;;;;;3.50;3.30;;;27.60;99.90;;;;;;5011159;28;20441;-75
2022/06/21 13:23:35;;;;;;;5.07;4.10;;;27.60;99.90;;;;;;5015119;28;20492;-76
2022/06/21 13:26:06;;;;;;;3.83;3.63;;;27.30;99.90;;;;;;5012609;28;20492;-76
2022/06/21 13:28:47;;;;;;;4.07;3.67;;;27.30;99.90;;;;;;5012828;28;20417;-76
2022/06/21 13:31:39;;;;;;;7.30;4.63;;;27.40;99.90;;;;;;5012237;28;20804;-76
2022/06/21 13:34:36;;;;;;;6.47;4.40;;;27.40;99.90;;;;;;5006686;28;21043;-76
2022/06/21 13:37:18;;;;;;;5.77;4.00;;;27.40;99.90;;;;;;5012201;28;20442;-76
2022/06/21 13:39:56;;;;;;;3.93;3.73;;;27.60;99.90;;;;;;5012588;28;20417;-76
2022/06/21 13:42:38;;;;;;;4.23;3.70;;;27.70;99.90;;;;;;5012218;28;20429;-75
2022/06/21 13:45:12;;;;;;;4.07;3.67;;;27.80;99.90;;;;;;5012424;28;20479;-76
2022/06/21 13:47:52;;;;;;;14.10;4.07;;;27.70;99.90;;;;;;5012077;28;20410;-75
2022/06/21 13:50:26;;;;;;;5.23;3.90;;;27.60;99.90;;;;;;5011989;28;20437;-76
2022/06/21 13:53:06;;;;;;;8.83;3.70;;;27.60;99.90;;;;;;5011894;28;20547;-76
2022/06/21 13:55:53;;;;;;;3.90;3.60;;;27.70;99.90;;;;;;5011995;28;20818;-76
2022/06/21 13:58:32;;;;;;;3.83;3.53;;;27.80;99.90;;;;;;5011939;28;20410;-75
2022/06/21 14:01:12;;;;;;;4.33;4.03;;;27.70;99.90;;;;;;5011805;28;20520;-76
2022/06/21 14:03:52;;;;;;;5.20;3.73;;;27.60;99.90;;;;;;5011974;28;20511;-75
2022/06/21 14:06:51;;;;;;;5.00;4.40;;;27.50;99.90;;;;;;5012102;28;20413;-76
2022/06/21 14:09:30;;;;;;;5.60;4.13;;;27.60;99.90;;;;;;5009348;28;20440;-75
2022/06/21 14:12:02;;;;;;;4.73;3.90;;;27.50;99.90;;;;;;5011509;28;20484;-76
2022/06/21 14:14:55;;;;;;;13.13;4.10;;;27.50;99.90;;;;;;5011806;28;20467;-75
2022/06/21 14:17:36;;;;;;;6.73;4.30;;;27.70;99.90;;;;;;5011901;28;20406;-77
2022/06/21 14:20:11;;;;;;;5.60;3.87;;;27.60;99.90;;;;;;5012026;28;20409;-76
2022/06/21 14:23:03;;;;;;;3.80;3.50;;;27.50;99.90;;;;;;5011582;28;20428;-76
2022/06/21 14:25:49;;;;;;;7.07;3.20;;;27.50;99.90;;;;;;5011726;28;20414;-76
2022/06/21 14:28:20;;;;;;;4.10;3.70;;;27.50;99.90;;;;;;5011923;28;20516;-77
2022/06/21 14:31:01;;;;;;;5.00;4.00;;;27.70;99.90;;;;;;5011395;28;20421;-75
2022/06/21 14:33:55;;;;;;;8.53;4.43;;;27.70;99.90;;;;;;5013259;28;20464;-76
2022/06/21 14:36:42;;;;;;;7.07;4.03;;;27.90;99.90;;;;;;5015560;28;20408;-76
2022/06/21 14:39:18;;;;;;;4.47;4.10;;;27.80;99.90;;;;;;5015538;28;20413;-76
2022/06/21 14:41:55;;;;;;;4.53;4.10;;;27.80;99.90;;;;;;5015547;28;20799;-75
2022/06/21 14:44:29;;;;;;;4.87;4.47;;;27.70;99.90;;;;;;5015394;28;20847;-75
2022/06/21 14:47:14;;;;;;;5.10;4.60;;;27.70;99.90;;;;;;5015400;28;20409;-76
2022/06/21 14:50:10;;;;;;;8.57;4.70;;;27.70;99.90;;;;;;5015241;28;20417;-74
2022/06/21 14:53:13;;;;;;;4.77;4.47;;;27.70;99.90;;;;;;5011435;28;20864;-75
2022/06/21 14:56:10;;;;;;;6.17;4.73;;;27.70;99.90;;;;;;5015223;28;20849;-77
2022/06/21 14:58:45;;;;;;;4.23;3.70;;;27.90;99.90;;;;;;5015191;28;20410;-76
2022/06/21 15:01:22;;;;;;;4.67;4.20;;;27.90;99.90;;;;;;5015132;28;20596;-76
2022/06/21 15:03:53;;;;;;;4.93;4.13;;;27.90;99.90;;;;;;5015527;28;20477;-76
2022/06/21 15:06:30;;;;;;;4.40;4.00;;;27.90;99.90;;;;;;5015192;28;20460;-76
2022/06/21 15:09:14;;;;;;;4.47;3.97;;;27.80;99.90;;;;;;5015445;28;20492;-76
2022/06/21 15:11:58;;;;;;;3.97;3.67;;;27.90;99.90;;;;;;5014754;28;20429;-76
2022/06/21 15:14:38;;;;;;;4.50;4.20;;;27.90;99.90;;;;;;5014910;28;20465;-75
2022/06/21 15:17:41;;;;;;;4.43;3.97;;;27.90;99.90;;;;;;5015037;28;20413;-76
2022/06/21 15:20:11;;;;;;;5.10;4.30;;;27.90;99.90;;;;;;5014877;28;20818;-76
2022/06/21 15:23:13;;;;;;;8.93;4.03;;;27.80;99.90;;;;;;5014273;28;20429;-76
2022/06/21 15:26:08;;;;;;;6.07;4.53;;;27.90;99.90;;;;;;5014675;28;20972;-76
2022/06/21 15:28:41;;;;;;;7.60;4.20;;;27.90;99.90;;;;;;5014738;28;20609;-76
2022/06/21 15:31:23;;;;;;;12.43;5.10;;;27.90;99.90;;;;;;5014234;28;20448;-76
2022/06/21 15:34:10;;;;;;;6.40;5.10;;;27.90;99.90;;;;;;5014620;28;20461;-76
2022/06/21 15:36:45;;;;;;;7.63;4.70;;;27.80;99.90;;;;;;5014298;28;20424;-76
2022/06/21 15:39:15;;;;;;;10.00;5.13;;;27.70;99.90;;;;;;5014824;28;20762;-75